sensor_id;sensor_type;location;lat;lon;timestamp;pressure;altitude;pressure_sealevel;temperature;humidity
49102;BME280;34913;47.520;19.186;2022-08-25T00:01:15;99980.13;;;19.88;100.00
49102;BME280;34913;47.520;19.186;2022-08-25T00:03:42;99977.81;;;19.85;100.00
49102;BME280;34913;47.520;19.186;2022-08-25T00:06:08;99978.38;;;19.80;100.00
49102;BME280;34913;47.520;19.186;2022-08-25T00:08:35;99975.69;;;19.80;100.00
49102;BME280;34913;47.520;19.186;2022-08-25T00:11:07;99981.69;;;19.83;100.00
49102;BME280;34913;47.520;19.186;2022-08-25T00:13:33;99976.50;;;19.81;100.00
49102;BME280;34913;47.520;19.186;2022-08-25T00:15:59;99982.09;;;19.79;100.00
49102;BME280;34913;47.520;19.186;2022-08-25T00:18:25;99970.88;;;19.76;100.00
49102;BME280;34913;47.520;19.186;2022-08-25T00:20:51;99964.91;;;19.80;100.00
49102;BME280;34913;47.520;19.186;2022-08-25T00:23:17;99965.09;;;19.79;100.00
49102;BME280;34913;47.520;19.186;2022-08-25T00:25:43;99964.72;;;19.82;100.00
49102;BME280;34913;47.520;19.186;2022-08-25T00:28:08;99966.13;;;19.78;100.00
49102;BME280;34913;47.520;19.186;2022-08-25T00:30:35;99955.34;;;19.78;100.00
49102;BME280;34913;47.520;19.186;2022-08-25T00:33:01;99961.56;;;19.78;100.00
49102;BME280;34913;47.520;19.186;2022-08-25T00:35:28;99964.66;;;19.75;100.00
49102;BME280;34913;47.520;19.186;2022-08-25T00:37:53;99967.88;;;19.71;100.00
49102;BME280;34913;47.520;19.186;2022-08-25T00:40:20;99966.56;;;19.67;100.00
49102;BME280;34913;47.520;19.186;2022-08-25T00:42:45;99975.22;;;19.62;100.00
49102;BME280;34913;47.520;19.186;2022-08-25T00:45:11;99968.53;;;19.58;100.00
49102;BME280;34913;47.520;19.186;2022-08-25T00:47:37;99973.06;;;19.58;100.00
49102;BME280;34913;47.520;19.186;2022-08-25T00:50:05;99966.66;;;19.59;100.00
49102;BME280;34913;47.520;19.186;2022-08-25T00:52:35;99971.91;;;19.60;100.00
49102;BME280;34913;47.520;19.186;2022-08-25T00:55:09;99970.88;;;19.61;100.00
49102;BME280;34913;47.520;19.186;2022-08-25T00:57:39;99965.69;;;19.60;100.00
49102;BME280;34913;47.520;19.186;2022-08-25T01:00:11;99963.34;;;19.57;100.00
49102;BME280;34913;47.520;19.186;2022-08-25T01:02:37;99970.09;;;19.52;100.00
49102;BME280;34913;47.520;19.186;2022-08-25T01:05:03;99968.03;;;19.55;100.00
49102;BME280;34913;47.520;19.186;2022-08-25T01:07:29;99959.88;;;19.48;100.00
49102;BME280;34913;47.520;19.186;2022-08-25T01:09:54;99965.44;;;19.46;100.00
49102;BME280;34913;47.520;19.186;2022-08-25T01:12:20;99964.59;;;19.46;100.00
49102;BME280;34913;47.520;19.186;2022-08-25T01:14:47;99972.31;;;19.49;100.00
49102;BME280;34913;47.520;19.186;2022-08-25T01:17:13;99967.31;;;19.46;100.00
49102;BME280;34913;47.520;19.186;2022-08-25T01:19:39;99971.00;;;19.45;100.00
49102;BME280;34913;47.520;19.186;2022-08-25T01:22:04;99978.25;;;19.44;100.00
49102;BME280;34913;47.520;19.186;2022-08-25T01:24:39;99973.22;;;19.41;100.00
49102;BME280;34913;47.520;19.186;2022-08-25T01:27:07;99966.19;;;19.40;100.00
49102;BME280;34913;47.520;19.186;2022-08-25T01:29:33;99970.81;;;19.46;100.00
49102;BME280;34913;47.520;19.186;2022-08-25T01:32:04;99967.31;;;19.46;100.00
49102;BME280;34913;47.520;19.186;2022-08-25T01:34:33;99956.53;;;19.46;100.00
49102;BME280;34913;47.520;19.186;2022-08-25T01:36:58;99958.75;;;19.42;100.00
49102;BME280;34913;47.520;19.186;2022-08-25T01:39:26;99958.09;;;19.40;100.00
49102;BME280;34913;47.520;19.186;2022-08-25T01:44:47;99956.81;;;19.36;100.00
49102;BME280;34913;47.520;19.186;2022-08-25T01:47:14;99955.97;;;19.36;100.00
49102;BME280;34913;47.520;19.186;2022-08-25T01:49:39;99952.91;;;19.39;100.00
49102;BME280;34913;47.520;19.186;2022-08-25T01:52:11;99957.47;;;19.38;100.00
49102;BME280;34913;47.520;19.186;2022-08-25T01:54:37;99953.09;;;19.37;100.00
49102;BME280;34913;47.520;19.186;2022-08-25T01:57:02;99953.53;;;19.26;100.00
49102;BME280;34913;47.520;19.186;2022-08-25T01:59:28;99954.56;;;19.25;100.00
49102;BME280;34913;47.520;19.186;2022-08-25T02:01:54;99958.81;;;19.19;100.00
49102;BME280;34913;47.520;19.186;2022-08-25T02:04:19;99963.34;;;19.19;100.00
49102;BME280;34913;47.520;19.186;2022-08-25T02:06:46;99950.09;;;19.17;100.00
49102;BME280;34913;47.520;19.186;2022-08-25T02:09:14;99955.28;;;19.19;100.00
49102;BME280;34913;47.520;19.186;2022-08-25T02:11:42;99955.47;;;19.17;100.00
49102;BME280;34913;47.520;19.186;2022-08-25T02:14:12;99960.41;;;19.14;100.00
49102;BME280;34913;47.520;19.186;2022-08-25T02:16:39;99957.91;;;19.12;100.00
49102;BME280;34913;47.520;19.186;2022-08-25T02:19:08;99956.75;;;19.07;100.00
49102;BME280;34913;47.520;19.186;2022-08-25T02:21:34;99953.59;;;19.03;100.00
49102;BME280;34913;47.520;19.186;2022-08-25T02:24:01;99953.97;;;19.00;100.00
49102;BME280;34913;47.520;19.186;2022-08-25T02:26:27;99947.75;;;19.00;100.00
49102;BME280;34913;47.520;19.186;2022-08-25T02:28:53;99950.91;;;19.03;100.00
49102;BME280;34913;47.520;19.186;2022-08-25T02:31:21;99947.56;;;19.01;100.00
49102;BME280;34913;47.520;19.186;2022-08-25T02:33:46;99950.06;;;19.03;100.00
49102;BME280;34913;47.520;19.186;2022-08-25T02:36:12;99940.50;;;19.00;100.00
49102;BME280;34913;47.520;19.186;2022-08-25T02:38:38;99942.38;;;19.00;100.00
49102;BME280;34913;47.520;19.186;2022-08-25T02:41:13;99943.38;;;18.99;100.00
49102;BME280;34913;47.520;19.186;2022-08-25T02:43:41;99939.38;;;18.94;100.00
49102;BME280;34913;47.520;19.186;2022-08-25T02:46:07;99933.72;;;18.89;100.00
49102;BME280;34913;47.520;19.186;2022-08-25T02:48:33;99939.94;;;18.90;100.00
49102;BME280;34913;47.520;19.186;2022-08-25T02:51:00;99934.75;;;18.88;100.00
49102;BME280;34913;47.520;19.186;2022-08-25T02:53:27;99933.88;;;18.88;100.00
49102;BME280;34913;47.520;19.186;2022-08-25T02:55:53;99937.06;;;18.91;100.00
49102;BME280;34913;47.520;19.186;2022-08-25T02:58:19;99943.38;;;18.99;100.00
49102;BME280;34913;47.520;19.186;2022-08-25T03:00:46;99944.88;;;19.01;100.00
49102;BME280;34913;47.520;19.186;2022-08-25T03:03:12;99948.59;;;19.00;100.00
49102;BME280;34913;47.520;19.186;2022-08-25T03:05:38;99943.38;;;18.99;100.00
49102;BME280;34913;47.520;19.186;2022-08-25T03:08:05;99939.88;;;18.98;100.00
49102;BME280;34913;47.520;19.186;2022-08-25T03:10:31;99938.72;;;18.92;100.00
49102;BME280;34913;47.520;19.186;2022-08-25T03:12:57;99940.41;;;18.93;100.00
49102;BME280;34913;47.520;19.186;2022-08-25T03:15:23;99934.38;;;18.91;100.00
49102;BME280;34913;47.520;19.186;2022-08-25T03:17:52;99943.47;;;18.90;100.00
49102;BME280;34913;47.520;19.186;2022-08-25T03:20:19;99929.00;;;18.91;100.00
49102;BME280;34913;47.520;19.186;2022-08-25T03:22:44;99935.41;;;18.90;100.00
49102;BME280;34913;47.520;19.186;2022-08-25T03:25:10;99937.44;;;18.88;100.00
49102;BME280;34913;47.520;19.186;2022-08-25T03:27:54;99933.25;;;18.86;100.00
49102;BME280;34913;47.520;19.186;2022-08-25T03:30:19;99933.81;;;18.81;100.00
49102;BME280;34913;47.520;19.186;2022-08-25T03:32:46;99933.63;;;18.83;100.00
49102;BME280;34913;47.520;19.186;2022-08-25T03:35:12;99932.78;;;18.82;100.00
49102;BME280;34913;47.520;19.186;2022-08-25T03:37:38;99940.84;;;18.82;100.00
49102;BME280;34913;47.520;19.186;2022-08-25T03:40:07;99944.00;;;18.86;100.00
49102;BME280;34913;47.520;19.186;2022-08-25T03:42:34;99940.13;;;18.88;100.00
49102;BME280;34913;47.520;19.186;2022-08-25T03:45:02;99945.66;;;18.87;100.00
49102;BME280;34913;47.520;19.186;2022-08-25T03:47:28;99939.44;;;18.86;100.00
49102;BME280;34913;47.520;19.186;2022-08-25T03:49:54;99941.13;;;18.87;100.00
49102;BME280;34913;47.520;19.186;2022-08-25T03:52:20;99935.94;;;18.86;100.00
49102;BME280;34913;47.520;19.186;2022-08-25T03:54:45;99931.56;;;18.85;100.00
49102;BME280;34913;47.520;19.186;2022-08-25T03:57:11;99940.13;;;18.88;100.00
49102;BME280;34913;47.520;19.186;2022-08-25T03:59:36;99940.13;;;18.88;100.00
49102;BME280;34913;47.520;19.186;2022-08-25T04:02:05;99938.91;;;18.91;100.00
49102;BME280;34913;47.520;19.186;2022-08-25T04:04:31;99936.22;;;18.91;100.00
49102;BME280;34913;47.520;19.186;2022-08-25T04:06:57;99935.41;;;18.90;100.00
49102;BME280;34913;47.520;19.186;2022-08-25T04:09:24;99937.06;;;18.91;100.00
49102;BME280;34913;47.520;19.186;2022-08-25T04:11:50;99936.22;;;18.91;100.00
49102;BME280;34913;47.520;19.186;2022-08-25T04:14:16;99944.94;;;18.93;100.00
49102;BME280;34913;47.520;19.186;2022-08-25T04:16:42;99938.72;;;18.92;100.00
49102;BME280;34913;47.520;19.186;2022-08-25T04:19:07;99947.81;;;18.91;100.00
49102;BME280;34913;47.520;19.186;2022-08-25T04:21:36;99944.75;;;18.94;100.00
49102;BME280;34913;47.520;19.186;2022-08-25T04:24:01;99937.06;;;18.91;100.00
49102;BME280;34913;47.520;19.186;2022-08-25T04:26:31;99946.28;;;18.97;100.00
49102;BME280;34913;47.520;19.186;2022-08-25T04:28:58;99946.09;;;18.99;100.00
49102;BME280;34913;47.520;19.186;2022-08-25T04:31:25;99951.47;;;18.99;100.00
49102;BME280;34913;47.520;19.186;2022-08-25T04:33:51;99951.09;;;19.02;100.00
49102;BME280;34913;47.520;19.186;2022-08-25T04:36:17;99949.91;;;19.04;100.00
49102;BME280;34913;47.520;19.186;2022-08-25T04:38:44;99950.75;;;19.05;100.00
49102;BME280;34913;47.520;19.186;2022-08-25T04:41:12;99947.47;;;19.09;100.00
49102;BME280;34913;47.520;19.186;2022-08-25T04:43:40;99946.13;;;19.13;100.00
49102;BME280;34913;47.520;19.186;2022-08-25T04:46:08;99949.16;;;19.10;100.00
49102;BME280;34913;47.520;19.186;2022-08-25T04:48:35;99945.63;;;19.10;100.00
49102;BME280;34913;47.520;19.186;2022-08-25T04:51:08;99950.28;;;19.16;100.00
49102;BME280;34913;47.520;19.186;2022-08-25T04:53:34;99942.84;;;19.18;100.00
49102;BME280;34913;47.520;19.186;2022-08-25T04:56:04;99947.22;;;19.19;100.00
49102;BME280;34913;47.520;19.186;2022-08-25T04:58:30;99942.59;;;19.28;100.00
49102;BME280;34913;47.520;19.186;2022-08-25T05:01:08;99948.81;;;19.28;100.00
49102;BME280;34913;47.520;19.186;2022-08-25T05:03:34;99950.31;;;19.31;100.00
49102;BME280;34913;47.520;19.186;2022-08-25T05:06:00;99942.78;;;19.41;100.00
49102;BME280;34913;47.520;19.186;2022-08-25T05:08:26;99943.91;;;19.46;100.00
49102;BME280;34913;47.520;19.186;2022-08-25T05:10:51;99941.50;;;19.51;100.00
49102;BME280;34913;47.520;19.186;2022-08-25T05:13:20;99938.91;;;19.58;100.00
49102;BME280;34913;47.520;19.186;2022-08-25T05:15:53;99937.97;;;19.66;100.00
49102;BME280;34913;47.520;19.186;2022-08-25T05:18:20;99938.91;;;19.73;100.00
49102;BME280;34913;47.520;19.186;2022-08-25T05:20:45;99939.63;;;19.82;100.00
49102;BME280;34913;47.520;19.186;2022-08-25T05:23:11;99941.38;;;19.89;100.00
49102;BME280;34913;47.520;19.186;2022-08-25T05:25:36;99935.72;;;19.99;100.00
49102;BME280;34913;47.520;19.186;2022-08-25T05:28:03;99941.00;;;20.07;100.00
49102;BME280;34913;47.520;19.186;2022-08-25T05:30:29;99939.03;;;20.16;100.00
49102;BME280;34913;47.520;19.186;2022-08-25T05:32:54;99934.72;;;20.21;100.00
49102;BME280;34913;47.520;19.186;2022-08-25T05:35:20;99939.97;;;20.29;100.00
49102;BME280;34913;47.520;19.186;2022-08-25T05:37:46;99940.63;;;20.46;100.00
49102;BME280;34913;47.520;19.186;2022-08-25T05:40:12;99942.41;;;20.60;100.00
49102;BME280;34913;47.520;19.186;2022-08-25T05:42:38;99943.25;;;20.82;100.00
49102;BME280;34913;47.520;19.186;2022-08-25T05:45:05;99941.09;;;20.99;100.00
49102;BME280;34913;47.520;19.186;2022-08-25T05:47:31;99936.69;;;21.19;100.00
49102;BME280;34913;47.520;19.186;2022-08-25T05:49:57;99932.56;;;21.52;100.00
49102;BME280;34913;47.520;19.186;2022-08-25T05:52:22;99940.22;;;21.89;97.13
49102;BME280;34913;47.520;19.186;2022-08-25T05:54:48;99935.81;;;22.23;95.35
49102;BME280;34913;47.520;19.186;2022-08-25T05:57:14;99940.03;;;22.52;93.03
49102;BME280;34913;47.520;19.186;2022-08-25T05:59:39;99943.19;;;22.89;90.81
49102;BME280;34913;47.520;19.186;2022-08-25T06:02:05;99948.81;;;23.13;88.73
49102;BME280;34913;47.520;19.186;2022-08-25T06:04:50;99942.09;;;23.49;86.12
49102;BME280;34913;47.520;19.186;2022-08-25T06:07:16;99938.09;;;23.78;84.11
49102;BME280;34913;47.520;19.186;2022-08-25T06:09:41;99940.41;;;24.19;81.97
49102;BME280;34913;47.520;19.186;2022-08-25T06:12:10;99931.94;;;24.41;81.07
49102;BME280;34913;47.520;19.186;2022-08-25T06:14:35;99941.09;;;24.78;79.22
49102;BME280;34913;47.520;19.186;2022-08-25T06:17:01;99947.28;;;25.17;76.88
49102;BME280;34913;47.520;19.186;2022-08-25T06:19:26;99952.00;;;25.46;74.85
49102;BME280;34913;47.520;19.186;2022-08-25T06:21:56;99946.38;;;25.84;74.18
49102;BME280;34913;47.520;19.186;2022-08-25T06:24:24;99949.75;;;25.98;72.93
49102;BME280;34913;47.520;19.186;2022-08-25T06:26:50;99947.34;;;26.08;72.67
49102;BME280;34913;47.520;19.186;2022-08-25T06:29:16;99949.75;;;26.16;72.51
49102;BME280;34913;47.520;19.186;2022-08-25T06:31:42;99952.91;;;26.32;71.21
49102;BME280;34913;47.520;19.186;2022-08-25T06:34:08;99961.91;;;26.62;69.05
49102;BME280;34913;47.520;19.186;2022-08-25T06:36:34;99959.00;;;26.87;68.97
49102;BME280;34913;47.520;19.186;2022-08-25T06:39:00;99961.81;;;26.81;68.87
49102;BME280;34913;47.520;19.186;2022-08-25T06:41:26;99964.09;;;26.95;69.07
49102;BME280;34913;47.520;19.186;2022-08-25T06:43:51;99955.50;;;27.10;66.96
49102;BME280;34913;47.520;19.186;2022-08-25T06:46:22;99964.75;;;27.21;66.05
49102;BME280;34913;47.520;19.186;2022-08-25T06:48:48;99957.38;;;27.33;65.87
49102;BME280;34913;47.520;19.186;2022-08-25T06:51:16;99954.19;;;27.71;65.26
49102;BME280;34913;47.520;19.186;2022-08-25T06:53:43;99963.06;;;27.90;64.62
49102;BME280;34913;47.520;19.186;2022-08-25T06:56:10;99963.31;;;27.89;63.29
49102;BME280;34913;47.520;19.186;2022-08-25T06:58:36;99953.22;;;28.18;63.66
49102;BME280;34913;47.520;19.186;2022-08-25T07:03:38;99963.69;;;28.49;61.65
49102;BME280;34913;47.520;19.186;2022-08-25T07:06:04;99959.91;;;28.67;60.61
49102;BME280;34913;47.520;19.186;2022-08-25T07:08:30;99953.22;;;28.75;60.69
49102;BME280;34913;47.520;19.186;2022-08-25T07:10:56;99958.13;;;28.89;59.82
49102;BME280;34913;47.520;19.186;2022-08-25T07:13:22;99953.44;;;29.02;60.15
49102;BME280;34913;47.520;19.186;2022-08-25T07:15:52;99951.78;;;29.17;58.83
49102;BME280;34913;47.520;19.186;2022-08-25T07:18:18;99948.44;;;29.32;58.29
49102;BME280;34913;47.520;19.186;2022-08-25T07:20:44;99957.53;;;29.38;59.70
49102;BME280;34913;47.520;19.186;2022-08-25T07:23:10;99950.75;;;29.40;58.66
49102;BME280;34913;47.520;19.186;2022-08-25T07:25:35;99953.09;;;29.32;56.89
49102;BME280;34913;47.520;19.186;2022-08-25T07:28:01;99945.72;;;29.32;58.09
49102;BME280;34913;47.520;19.186;2022-08-25T07:30:27;99955.16;;;29.25;57.07
49102;BME280;34913;47.520;19.186;2022-08-25T07:32:52;99955.47;;;29.28;57.06
49102;BME280;34913;47.520;19.186;2022-08-25T07:35:18;99952.69;;;29.23;57.61
49102;BME280;34913;47.520;19.186;2022-08-25T07:37:53;99959.88;;;29.29;57.74
49102;BME280;34913;47.520;19.186;2022-08-25T07:40:25;99951.91;;;29.28;56.66
49102;BME280;34913;47.520;19.186;2022-08-25T07:42:53;99956.88;;;29.64;56.87
49102;BME280;34913;47.520;19.186;2022-08-25T07:45:21;99948.06;;;29.84;55.14
49102;BME280;34913;47.520;19.186;2022-08-25T07:47:54;99948.72;;;29.91;54.02
49102;BME280;34913;47.520;19.186;2022-08-25T07:50:20;99951.78;;;29.73;55.10
49102;BME280;34913;47.520;19.186;2022-08-25T07:52:46;99945.03;;;29.81;54.70
49102;BME280;34913;47.520;19.186;2022-08-25T07:55:12;99948.84;;;29.80;55.33
49102;BME280;34913;47.520;19.186;2022-08-25T07:57:39;99948.53;;;29.76;55.19
49102;BME280;34913;47.520;19.186;2022-08-25T08:00:05;99941.72;;;30.00;54.49
49102;BME280;34913;47.520;19.186;2022-08-25T08:02:32;99948.34;;;30.26;53.23
49102;BME280;34913;47.520;19.186;2022-08-25T08:04:57;99941.97;;;30.48;53.21
49102;BME280;34913;47.520;19.186;2022-08-25T08:07:25;99945.13;;;30.62;52.69
49102;BME280;34913;47.520;19.186;2022-08-25T08:09:51;99941.78;;;30.54;53.13
49102;BME280;34913;47.520;19.186;2022-08-25T08:12:17;99949.09;;;30.49;51.60
49102;BME280;34913;47.520;19.186;2022-08-25T08:14:43;99949.69;;;30.51;49.93
49102;BME280;34913;47.520;19.186;2022-08-25T08:17:10;99949.34;;;30.42;49.72
49102;BME280;34913;47.520;19.186;2022-08-25T08:19:35;99950.47;;;30.46;50.03
49102;BME280;34913;47.520;19.186;2022-08-25T08:22:03;99943.13;;;30.52;49.22
49102;BME280;34913;47.520;19.186;2022-08-25T08:24:30;99945.56;;;30.75;48.03
49102;BME280;34913;47.520;19.186;2022-08-25T08:26:56;99946.88;;;30.68;49.79
49102;BME280;34913;47.520;19.186;2022-08-25T08:29:22;99939.81;;;30.77;48.58
49102;BME280;34913;47.520;19.186;2022-08-25T08:31:47;99941.31;;;30.90;49.80
49102;BME280;34913;47.520;19.186;2022-08-25T08:34:13;99937.00;;;31.04;49.67
49102;BME280;34913;47.520;19.186;2022-08-25T08:36:39;99937.13;;;31.19;50.09
49102;BME280;34913;47.520;19.186;2022-08-25T08:39:05;99939.03;;;31.19;49.13
49102;BME280;34913;47.520;19.186;2022-08-25T08:47:26;99937.22;;;30.92;48.73
49102;BME280;34913;47.520;19.186;2022-08-25T08:50:05;99936.44;;;30.97;47.32
49102;BME280;34913;47.520;19.186;2022-08-25T08:52:40;99937.75;;;30.89;48.58
49102;BME280;34913;47.520;19.186;2022-08-25T08:55:37;99937.81;;;30.99;49.21
49102;BME280;34913;47.520;19.186;2022-08-25T08:58:04;99936.53;;;31.12;48.96
49102;BME280;34913;47.520;19.186;2022-08-25T09:00:32;99931.91;;;31.18;47.40
49102;BME280;34913;47.520;19.186;2022-08-25T09:05:33;99935.38;;;31.40;47.63
49102;BME280;34913;47.520;19.186;2022-08-25T09:08:05;99928.44;;;31.27;46.71
49102;BME280;34913;47.520;19.186;2022-08-25T09:10:59;99926.03;;;30.67;49.08
49102;BME280;34913;47.520;19.186;2022-08-25T09:16:43;99919.84;;;30.49;49.05
49102;BME280;34913;47.520;19.186;2022-08-25T09:28:04;99908.81;;;30.17;46.63
49102;BME280;34913;47.520;19.186;2022-08-25T09:30:52;99903.47;;;30.33;49.58
49102;BME280;34913;47.520;19.186;2022-08-25T09:33:21;99900.59;;;30.44;48.69
49102;BME280;34913;47.520;19.186;2022-08-25T09:35:49;99896.72;;;30.40;46.94
49102;BME280;34913;47.520;19.186;2022-08-25T09:38:15;99897.44;;;30.30;47.19
49102;BME280;34913;47.520;19.186;2022-08-25T09:40:44;99896.69;;;30.35;48.67
49102;BME280;34913;47.520;19.186;2022-08-25T09:43:30;99891.34;;;30.50;50.13
49102;BME280;34913;47.520;19.186;2022-08-25T09:46:00;99883.69;;;30.52;48.38
49102;BME280;34913;47.520;19.186;2022-08-25T09:50:56;99883.66;;;30.79;47.40
49102;BME280;34913;47.520;19.186;2022-08-25T09:53:23;99880.97;;;30.84;47.96
49102;BME280;34913;47.520;19.186;2022-08-25T09:55:56;99870.88;;;30.90;46.59
49102;BME280;34913;47.520;19.186;2022-08-25T09:58:23;99874.63;;;30.79;46.38
49102;BME280;34913;47.520;19.186;2022-08-25T10:01:06;99869.97;;;30.79;47.02
49102;BME280;34913;47.520;19.186;2022-08-25T10:03:35;99865.16;;;30.97;47.07
49102;BME280;34913;47.520;19.186;2022-08-25T10:06:06;99857.78;;;31.02;45.52
49102;BME280;34913;47.520;19.186;2022-08-25T10:11:04;99859.19;;;31.05;46.13
49102;BME280;34913;47.520;19.186;2022-08-25T10:14:00;99852.13;;;31.19;46.32
49102;BME280;34913;47.520;19.186;2022-08-25T10:16:29;99851.31;;;31.19;45.51
49102;BME280;34913;47.520;19.186;2022-08-25T10:19:13;99848.06;;;31.22;45.32
49102;BME280;34913;47.520;19.186;2022-08-25T10:24:29;99842.59;;;31.22;47.14
49102;BME280;34913;47.520;19.186;2022-08-25T10:27:19;99845.13;;;31.38;46.91
49102;BME280;34913;47.520;19.186;2022-08-25T10:35:17;99829.75;;;31.32;46.37
49102;BME280;34913;47.520;19.186;2022-08-25T10:43:16;99821.34;;;31.59;46.06
49102;BME280;34913;47.520;19.186;2022-08-25T10:45:52;99824.19;;;31.80;45.72
49102;BME280;34913;47.520;19.186;2022-08-25T10:53:53;99817.47;;;31.45;45.56
49102;BME280;34913;47.520;19.186;2022-08-25T10:56:28;99820.50;;;31.54;44.91
49102;BME280;34913;47.520;19.186;2022-08-25T11:04:11;99813.09;;;31.59;44.85
49102;BME280;34913;47.520;19.186;2022-08-25T11:09:29;99795.78;;;31.49;45.37
49102;BME280;34913;47.520;19.186;2022-08-25T11:12:01;99799.66;;;31.58;45.63
49102;BME280;34913;47.520;19.186;2022-08-25T11:14:30;99799.41;;;31.64;46.09
49102;BME280;34913;47.520;19.186;2022-08-25T11:17:09;99797.22;;;31.66;45.42
49102;BME280;34913;47.520;19.186;2022-08-25T11:19:42;99781.88;;;31.71;44.74
49102;BME280;34913;47.520;19.186;2022-08-25T11:22:18;99779.38;;;31.64;44.80
49102;BME280;34913;47.520;19.186;2022-08-25T11:27:53;99787.41;;;31.81;44.84
49102;BME280;34913;47.520;19.186;2022-08-25T11:30:20;99780.28;;;31.85;45.15
49102;BME280;34913;47.520;19.186;2022-08-25T11:32:49;99775.28;;;31.72;45.28
49102;BME280;34913;47.520;19.186;2022-08-25T11:35:17;99764.03;;;31.68;44.30
49102;BME280;34913;47.520;19.186;2022-08-25T11:43:16;99747.00;;;31.66;45.69
49102;BME280;34913;47.520;19.186;2022-08-25T11:46:02;99746.72;;;31.67;45.26
49102;BME280;34913;47.520;19.186;2022-08-25T11:48:46;99749.53;;;31.88;43.67
49102;BME280;34913;47.520;19.186;2022-08-25T11:54:20;99746.78;;;31.83;44.74
49102;BME280;34913;47.520;19.186;2022-08-25T11:57:07;99737.66;;;31.47;45.15
49102;BME280;34913;47.520;19.186;2022-08-25T12:11:03;99726.97;;;31.65;42.99
49102;BME280;34913;47.520;19.186;2022-08-25T12:13:49;99726.13;;;31.60;43.53
49102;BME280;34913;47.520;19.186;2022-08-25T12:36:01;99724.22;;;31.45;43.75
49102;BME280;34913;47.520;19.186;2022-08-25T12:38:42;99718.75;;;31.60;44.00
49102;BME280;34913;47.520;19.186;2022-08-25T12:41:12;99713.53;;;31.74;44.20
49102;BME280;34913;47.520;19.186;2022-08-25T12:43:40;99717.16;;;31.90;44.34
49102;BME280;34913;47.520;19.186;2022-08-25T12:51:27;99707.75;;;31.55;42.78
49102;BME280;34913;47.520;19.186;2022-08-25T12:55:19;99716.78;;;31.40;44.26
49102;BME280;34913;47.520;19.186;2022-08-25T12:57:42;99702.00;;;31.57;45.36
49102;BME280;34913;47.520;19.186;2022-08-25T13:00:17;99699.81;;;31.69;43.53
49102;BME280;34913;47.520;19.186;2022-08-25T13:03:14;99698.16;;;31.73;43.86
49102;BME280;34913;47.520;19.186;2022-08-25T13:13:48;99695.97;;;31.65;42.40
49102;BME280;34913;47.520;19.186;2022-08-25T13:16:24;99691.59;;;31.74;43.45
49102;BME280;34913;47.520;19.186;2022-08-25T13:18:52;99688.59;;;31.81;42.83
49102;BME280;34913;47.520;19.186;2022-08-25T13:21:32;99691.34;;;31.81;44.14
49102;BME280;34913;47.520;19.186;2022-08-25T13:23:59;99692.13;;;31.66;44.91
49102;BME280;34913;47.520;19.186;2022-08-25T13:26:31;99689.66;;;31.54;45.31
49102;BME280;34913;47.520;19.186;2022-08-25T13:29:02;99680.28;;;31.35;43.79
49102;BME280;34913;47.520;19.186;2022-08-25T13:31:28;99683.03;;;31.35;45.60
49102;BME280;34913;47.520;19.186;2022-08-25T13:34:06;99680.75;;;31.06;44.78
49102;BME280;34913;47.520;19.186;2022-08-25T13:36:43;99682.06;;;30.99;45.59
49102;BME280;34913;47.520;19.186;2022-08-25T13:39:27;99680.94;;;30.95;44.50
49102;BME280;34913;47.520;19.186;2022-08-25T13:41:56;99681.84;;;31.05;44.90
49102;BME280;34913;47.520;19.186;2022-08-25T13:44:27;99678.78;;;30.97;45.18
49102;BME280;34913;47.520;19.186;2022-08-25T13:47:12;99673.81;;;30.94;44.96
49102;BME280;34913;47.520;19.186;2022-08-25T13:49:44;99674.94;;;30.98;46.37
49102;BME280;34913;47.520;19.186;2022-08-25T13:52:24;99665.91;;;31.02;45.62
49102;BME280;34913;47.520;19.186;2022-08-25T13:54:56;99665.91;;;31.02;44.11
49102;BME280;34913;47.520;19.186;2022-08-25T13:57:24;99665.91;;;31.02;45.64
49102;BME280;34913;47.520;19.186;2022-08-25T13:59:59;99666.44;;;31.04;44.82
49102;BME280;34913;47.520;19.186;2022-08-25T14:05:13;99660.66;;;30.96;46.06
49102;BME280;34913;47.520;19.186;2022-08-25T14:07:55;99651.88;;;30.89;46.22
49102;BME280;34913;47.520;19.186;2022-08-25T14:13:15;99660.88;;;30.74;45.21
49102;BME280;34913;47.520;19.186;2022-08-25T14:15:44;99650.75;;;30.79;45.80
49102;BME280;34913;47.520;19.186;2022-08-25T14:18:26;99653.22;;;30.76;45.67
49102;BME280;34913;47.520;19.186;2022-08-25T14:20:55;99645.78;;;30.71;45.94
49102;BME280;34913;47.520;19.186;2022-08-25T14:23:24;99650.66;;;30.64;46.26
49102;BME280;34913;47.520;19.186;2022-08-25T14:25:53;99650.63;;;30.59;46.79
49102;BME280;34913;47.520;19.186;2022-08-25T14:28:22;99649.78;;;30.53;46.83
49102;BME280;34913;47.520;19.186;2022-08-25T14:30:54;99640.50;;;30.60;46.38
49102;BME280;34913;47.520;19.186;2022-08-25T14:33:25;99628.94;;;30.47;46.33
49102;BME280;34913;47.520;19.186;2022-08-25T14:35:54;99643.72;;;30.46;46.60
49102;BME280;34913;47.520;19.186;2022-08-25T14:38:22;99636.59;;;30.45;47.02
49102;BME280;34913;47.520;19.186;2022-08-25T14:40:47;99624.22;;;30.38;46.59
49102;BME280;34913;47.520;19.186;2022-08-25T14:43:14;99633.56;;;30.42;48.39
49102;BME280;34913;47.520;19.186;2022-08-25T14:45:42;99628.28;;;30.30;47.04
49102;BME280;34913;47.520;19.186;2022-08-25T14:48:11;99628.25;;;30.25;47.01
49102;BME280;34913;47.520;19.186;2022-08-25T14:50:38;99628.28;;;30.30;47.22
49102;BME280;34913;47.520;19.186;2022-08-25T14:53:05;99628.84;;;30.27;47.51
49102;BME280;34913;47.520;19.186;2022-08-25T14:55:30;99627.44;;;30.24;47.11